Flight Track Log - Related Links

Times and Time Zones

All times are in EST time to prevent confusion due to time zone crossing. See the EJA749 flight status page for this flight to view local times or setup timezone preferences in your user account.

Time Position Orientation Groundspeed Altitude Reporting Facility
EST Latitude Longitude Course Direction KTS MPH feet Rate Location/Type
Wed 11:44:11 AM 36.0650 -115.1772 206° Southwest 211 243 3,500  Level Los Angeles Center
Wed 11:44:53 AM 36.0250 -115.2011 206° Southwest 219 252 5,500 1,927 Climbing Los Angeles Center
Wed 11:46:00 AM 35.9822 -115.2733 234° Southwest 258 297 7,000 1,169 Climbing Los Angeles Center
Wed 11:46:10 AM 35.9744 -115.2825 224° Southwest 258 297 7,000 2,262 Level Los Angeles Center
Wed 11:47:01 AM 35.9119 -115.2778 176° South 270 311 9,300 3,581 Climbing Los Angeles Center
Wed 11:47:12 AM 35.8953 -115.2719 164° South 274 315 10,700 3,730 Climbing Los Angeles Center
Wed 11:48:15 AM 35.8450 -115.1872 126° Southeast 344 396 13,900 3,408 Climbing Los Angeles Center
Wed 11:49:17 AM 35.8244 -115.0494 100° East 390 449 17,800 3,309 Climbing Los Angeles Center
Wed 11:50:31 AM 35.8367 -114.9103 84° East 412 474 21,400 3,088 Climbing Los Angeles Center
Wed 11:51:33 AM 35.8519 -114.7297 84° East 427 491 24,800 1,728 Climbing Los Angeles Center
Wed 11:52:36 AM 35.8658 -114.5758 84° East 446 513 25,000 96 Climbing Los Angeles Center
Wed 11:53:38 AM 35.8781 -114.4242 84° East 447 514 25,000  Level Los Angeles Center
Wed 11:54:40 AM 35.8917 -114.2725 84° East 446 513 25,000  Level Los Angeles Center
Wed 11:55:42 AM 35.9089 -114.0872 83° East 453 521 25,000  Level Los Angeles Center
Wed 11:56:43 AM 35.9178 -113.9650 85° East 450 518 25,000  Level Los Angeles Center
Wed 11:57:58 AM 35.9044 -113.7853 95° East 445 512 25,000  Level Los Angeles Center
Wed 11:59:01 AM 35.8761 -113.6061 101° East 444 511 25,000  Level Los Angeles Center
Wed 12:00:02 PM 35.8497 -113.4397 101° East 445 512 25,000  Level Los Angeles Center
Wed 12:01:04 PM 35.8275 -113.2906 100° East 443 510 25,000  Level Los Angeles Center
Wed 12:02:06 PM 35.8150 -113.1400 96° East 441 507 25,000  Level Los Angeles Center
Wed 12:03:08 PM 35.8019 -112.9883 96° East 442 509 25,000  Level Los Angeles Center
Wed 12:04:10 PM 35.7889 -112.8369 96° East 442 509 25,000  Level Los Angeles Center
Wed 12:05:12 PM 35.7758 -112.6864 96° East 441 507 25,000  Level Los Angeles Center
Wed 12:06:14 PM 35.7619 -112.5353 96° East 442 509 25,000  Level Los Angeles Center
Wed 12:07:16 PM 35.7492 -112.3856 96° East 440 506 25,000  Level Los Angeles Center
Wed 12:08:18 PM 35.7336 -112.2058 96° East 439 505 25,000  Level Los Angeles Center
Wed 12:09:21 PM 35.7192 -112.0564 97° East 440 506 25,000  Level Los Angeles Center
Wed 12:10:23 PM 35.7056 -111.9058 96° East 441 507 25,000  Level Los Angeles Center
Wed 12:11:25 PM 35.6903 -111.7550 97° East 445 512 25,000  Level Los Angeles Center
Wed 12:12:27 PM 35.6747 -111.5894 97° East 440 506 25,000  Level Los Angeles Center
Wed 12:13:01 PM 35.6661 -111.5150 98° East 442 509 25,000  Level Albuquerque Center
Wed 12:14:03 PM 35.6492 -111.3386 97° East 441 507 25,000  Level Albuquerque Center
Wed 12:15:05 PM 35.6367 -111.1950 96° East 441 507 25,000  Level Albuquerque Center
Wed 12:16:07 PM 35.6197 -111.0511 98° East 441 507 25,000  Level Albuquerque Center
Wed 12:17:09 PM 35.6028 -110.8858 97° East 439 505 25,000  Level Albuquerque Center
Wed 12:18:11 PM 35.5892 -110.7475 97° East 432 497 25,000  Level Albuquerque Center
Wed 12:19:13 PM 35.5719 -110.5878 98° East 425 489 25,000  Level Albuquerque Center
Wed 12:20:15 PM 35.5575 -110.4503 97° East 424 488 25,000  Level Albuquerque Center
Wed 12:21:17 PM 35.5406 -110.2919 97° East 422 486 25,000  Level Albuquerque Center
Wed 12:22:19 PM 35.5275 -110.1569 97° East 419 482 25,000  Level Albuquerque Center
Wed 12:23:22 PM 35.5089 -109.9922 98° East 430 495 25,000  Level Albuquerque Center
Wed 12:24:24 PM 35.4936 -109.8461 97° East 443 510 25,000  Level Albuquerque Center
Wed 12:25:26 PM 35.4744 -109.6753 98° East 451 519 25,000  Level Albuquerque Center
Wed 12:26:28 PM 35.4575 -109.5297 98° East 451 519 25,000  Level Albuquerque Center
Wed 12:27:30 PM 35.4383 -109.3597 98° East 452 520 25,000  Level Albuquerque Center
Wed 12:28:32 PM 35.4208 -109.2142 98° East 453 521 25,000  Level Albuquerque Center
Wed 12:29:34 PM 35.4006 -109.0450 98° East 453 521 25,000  Level Albuquerque Center
Wed 12:30:36 PM 35.3833 -108.9008 98° East 451 519 25,000  Level Albuquerque Center
Wed 12:31:38 PM 35.3633 -108.7325 98° East 450 518 25,000  Level Albuquerque Center
Wed 12:32:40 PM 35.3453 -108.5856 99° East 453 521 25,000  Level Albuquerque Center
Wed 12:33:42 PM 35.3233 -108.4100 99° East 462 532 25,000  Level Albuquerque Center
Wed 12:34:44 PM 35.3039 -108.2569 99° East 468 539 25,000  Level Albuquerque Center
Wed 12:35:46 PM 35.2817 -108.0783 99° East 474 545 25,000  Level Albuquerque Center
Wed 12:36:48 PM 35.2611 -107.9247 99° East 477 549 25,000  Level Albuquerque Center
Wed 12:37:50 PM 35.2386 -107.7456 99° East 478 550 25,000  Level Albuquerque Center
Wed 12:38:53 PM 35.2183 -107.5908 99° East 480 552 25,000  Level Albuquerque Center
Wed 12:39:55 PM 35.1956 -107.4086 99° East 483 556 25,000  Level Albuquerque Center
Wed 12:40:57 PM 35.1753 -107.2553 99° East 479 551 25,000  Level Albuquerque Center
Wed 12:41:59 PM 35.1514 -107.0831 100° East 481 554 25,000  Level Albuquerque Center
Wed 12:43:01 PM 35.1264 -106.9083 100° East 484 557 25,000  Level Albuquerque Center
Wed 12:44:03 PM 35.1069 -106.7625 99° East 481 554 25,000  Level Albuquerque Center
Wed 12:45:05 PM 35.0850 -106.6028 99° East 479 551 25,000  Level Albuquerque Center
Wed 12:46:07 PM 35.0567 -106.4089 100° East 483 556 25,000  Level Albuquerque Center
Wed 12:47:09 PM 35.0339 -106.2486 100° East 484 557 25,000  Level Albuquerque Center
Wed 12:48:11 PM 35.0108 -106.0953 100° East 477 549 25,000  Level Albuquerque Center
Wed 12:49:13 PM 34.9900 -105.9475 100° East 463 533 25,000  Level Albuquerque Center
Wed 12:50:15 PM 34.9672 -105.7944 100° East 458 527 25,000  Level Albuquerque Center
Wed 12:51:17 PM 34.9442 -105.6369 100° East 468 539 25,000  Level Albuquerque Center
Wed 12:52:20 PM 34.9161 -105.4511 100° East 466 536 25,000  Level Albuquerque Center
Wed 12:53:22 PM 34.8922 -105.2947 101° East 467 537 25,000  Level Albuquerque Center
Wed 12:54:24 PM 34.8686 -105.1394 100° East 465 535 25,000  Level Albuquerque Center
Wed 12:55:26 PM 34.8453 -104.9833 100° East 465 535 25,000  Level Albuquerque Center
Wed 12:56:28 PM 34.8203 -104.8278 101° East 466 536 25,000  Level Albuquerque Center
Wed 12:57:30 PM 34.7964 -104.6719 101° East 467 537 25,000  Level Albuquerque Center
Wed 12:58:32 PM 34.7683 -104.4897 101° East 468 539 25,000  Level Albuquerque Center
Wed 12:59:34 PM 34.7431 -104.3336 101° East 470 541 25,000  Level Albuquerque Center
Wed 01:00:36 PM 34.7192 -104.1794 101° East 466 536 25,000  Level Albuquerque Center
Wed 01:01:38 PM 34.6944 -104.0236 101° East 468 539 25,000  Level Albuquerque Center
Wed 01:02:40 PM 34.6692 -103.8686 101° East 467 537 25,000  Level Albuquerque Center
Wed 01:03:43 PM 34.6392 -103.6889 101° East 464 534 25,000  Level Albuquerque Center
Wed 01:04:45 PM 34.6136 -103.5347 101° East 464 534 25,000  Level Albuquerque Center
Wed 01:05:47 PM 34.5875 -103.3789 101° East 466 536 25,000  Level Albuquerque Center
Wed 01:06:49 PM 34.5628 -103.2250 101° East 464 534 25,000  Level Albuquerque Center
Wed 01:07:51 PM 34.5350 -103.0706 102° East 465 535 25,000  Level Albuquerque Center
Wed 01:08:53 PM 34.5089 -102.9153 101° East 467 537 25,000  Level Albuquerque Center
Wed 01:09:56 PM 34.4847 -102.7503 100° East 467 537 25,000  Level Albuquerque Center
Wed 01:10:58 PM 34.4706 -102.5936 96° East 470 541 25,000  Level Albuquerque Center
Wed 01:12:00 PM 34.4539 -102.4386 97° East 468 539 25,000  Level Albuquerque Center
Wed 01:13:02 PM 34.4342 -102.2494 97° East 472 543 25,000  Level Albuquerque Center
Wed 01:14:04 PM 34.4172 -102.0942 97° East 471 542 25,000  Level Albuquerque Center
Wed 01:15:06 PM 34.4000 -101.9367 98° East 472 543 25,000  Level Albuquerque Center
Wed 01:16:08 PM 34.3831 -101.7783 97° East 475 547 25,000  Level Albuquerque Center
Wed 01:17:10 PM 34.3653 -101.6197 98° East 477 549 25,000  Level Albuquerque Center
Wed 01:18:12 PM 34.3442 -101.4281 98° East 481 554 25,000  Level Albuquerque Center
Wed 01:19:14 PM 34.3261 -101.2675 98° East 482 555 25,000  Level Albuquerque Center
Wed 01:20:16 PM 34.3086 -101.1078 98° East 483 556 25,000  Level Albuquerque Center
Wed 01:21:18 PM 34.2892 -100.9508 98° East 480 552 25,000  Level Albuquerque Center
Wed 01:22:20 PM 34.2697 -100.7908 98° East 481 554 25,000  Level Albuquerque Center
Wed 01:23:22 PM 34.2467 -100.5989 98° East 484 557 25,000  Level Albuquerque Center
Wed 01:24:43 PM 34.2231 -100.4061 98° East 483 556 25,000  Level Fort Worth Center
Wed 01:25:45 PM 34.2022 -100.2447 99° East 483 556 25,000  Level Fort Worth Center
Wed 01:26:48 PM 34.1533 -100.0619 108° East 473 544 25,000  Level Fort Worth Center
Wed 01:27:50 PM 34.1136 -99.9128 108° East 468 539 25,000  Level Fort Worth Center
Wed 01:28:52 PM 34.0731 -99.7606 108° East 474 545 25,000  Level Fort Worth Center
Wed 01:29:54 PM 34.0325 -99.6069 108° East 477 549 25,000  Level Fort Worth Center
Wed 01:30:56 PM 33.9925 -99.4536 107° East 476 548 25,000 -194 Level Fort Worth Center
Wed 01:31:58 PM 33.9531 -99.3031 107° East 472 543 24,600 -484 Descending Fort Worth Center
Wed 01:33:00 PM 33.9131 -99.1508 108° East 474 545 24,000 -290 Descending Fort Worth Center
Wed 01:34:02 PM 33.8678 -98.9856 108° East 474 545 24,000 -480 Level Fort Worth Center
Wed 01:35:05 PM 33.8208 -98.8086 108° East 492 566 23,000 -1,296 Descending Fort Worth Center
Wed 01:36:07 PM 33.7806 -98.6567 108° East 456 525 21,300 -1,645 Descending Fort Worth Center
Wed 01:37:09 PM 33.7406 -98.5103 108° East 444 511 19,600 -1,694 Descending Fort Worth Center
Wed 01:38:11 PM 33.7022 -98.3667 108° East 434 499 17,800 -1,355 Descending Fort Worth Center
Wed 01:39:13 PM 33.6661 -98.2364 108° East 423 487 16,800 -1,065 Descending Fort Worth Center
Wed 01:40:15 PM 33.6289 -98.1008 108° East 412 474 15,600 -1,161 Descending Fort Worth Center
Wed 01:41:17 PM 33.5914 -97.9656 108° East 408 470 14,400 -1,113 Descending Fort Worth Center
Wed 01:42:19 PM 33.5528 -97.8311 109° East 393 452 13,300 -1,065 Descending Fort Worth Center
Wed 01:43:21 PM 33.5186 -97.7125 109° East 379 436 12,200 -1,065 Descending Fort Worth Center
Wed 01:44:23 PM 33.4842 -97.5914 109° East 383 441 11,100 -1,008 Descending Fort Worth Center
Wed 01:45:26 PM 33.4478 -97.4703 110° East 359 413 10,100 -672 Descending Fort Worth Center
Wed 01:46:28 PM 33.3867 -97.4031 137° Southeast 308 354 9,700 -1,179 Descending Fort Worth Center
Wed 01:47:18 PM 33.3667 -97.3167 105° East 304 350 7,900 -2,108 Descending Dallas / Fort Worth TRACON
Wed 01:48:19 PM 33.3500 -97.2333 103° East 292 336 5,800 -1,429 Descending Dallas / Fort Worth TRACON
Wed 01:49:24 PM 33.3333 -97.1500 103° East 239 275 4,900 -739 Descending Dallas / Fort Worth TRACON
Wed 01:50:37 PM 33.3069 -97.0475 107° East 248 285 4,100 -358 Descending Fort Worth Center
Wed 01:51:38 PM 33.2692 -96.9808 124° Southeast 243 280 4,100  Level Fort Worth Center
Wed 01:52:40 PM 33.2247 -96.9164 129° Southeast 249 287 4,100 -48 Level Fort Worth Center
Wed 01:53:42 PM 33.1786 -96.8467 128° Southeast 253 291 4,000 -48 Descending Fort Worth Center
Wed 01:54:44 PM 33.1206 -96.7872 139° Southeast 256 295 4,000 -500 Level Fort Worth Center
Wed 01:55:30 PM 33.0833 -96.7500 140° Southeast 255 293 3,100 -600 Descending Dallas / Fort Worth TRACON
Wed 01:56:24 PM 33.0333 -96.6833 132° Southeast 254 292 3,000 -110 Descending Dallas / Fort Worth TRACON
Wed 01:57:19 PM 32.9833 -96.6500 151° Southeast 211 243 2,900  Descending Dallas / Fort Worth TRACON
Wed 01:58:19 PM 32.9167 -96.6500 180° South 229 264 3,000 -190 Climbing Dallas / Fort Worth TRACON
Wed 01:59:25 PM 32.8500 -96.6500 180° South 240 276 2,500 -333 Descending Dallas / Fort Worth TRACON
Wed 02:00:25 PM 32.8000 -96.7000 220° Southwest 193 222 2,300 -96 Descending Dallas / Fort Worth TRACON
Wed 02:01:30 PM 32.7667 -96.7333 220° Southwest 170 196 2,300 -192 Level Dallas / Fort Worth TRACON
Wed 02:02:30 PM 32.8000 -96.7833 308° West 153 176 1,900 -632 Descending Dallas / Fort Worth TRACON
Wed 02:03:24 PM 32.8167 -96.8167 301° West 141 162 1,100 -889 Descending Dallas / Fort Worth TRACON

Login

Don't have an account? Register now (free) for customized features, flight alerts, and more!